createdAt,value
2019-03-05T00:00:17.295Z,81.10
2019-03-05T00:03:30.891Z,80.53
2019-03-05T00:06:44.737Z,81.21
2019-03-05T00:09:58.259Z,81.77
2019-03-05T00:13:11.757Z,80.99
2019-03-05T00:16:25.350Z,81.11
2019-03-05T00:19:38.830Z,80.34
2019-03-05T00:22:52.522Z,79.67
2019-03-05T00:26:06.300Z,79.56
2019-03-05T00:30:00.371Z,79.72
2019-03-05T00:33:48.719Z,79.36
2019-03-05T00:37:09.986Z,80.40
2019-03-05T00:40:45.726Z,80.17
2019-03-05T00:44:23.573Z,80.88
2019-03-05T00:48:03.591Z,80.40
2019-03-05T00:51:38.797Z,79.86
2019-03-05T00:55:13.408Z,80.38
2019-03-05T00:58:57.931Z,80.43
2019-03-05T01:02:38.276Z,80.55
2019-03-05T01:06:16.427Z,79.99
2019-03-05T01:09:30.518Z,80.59
2019-03-05T01:12:44.501Z,79.54
2019-03-05T01:15:58.085Z,79.21
2019-03-05T01:19:11.681Z,79.39
2019-03-05T01:22:25.175Z,79.57
2019-03-05T01:25:38.758Z,79.24
2019-03-05T01:28:52.613Z,79.33
2019-03-05T01:32:28.637Z,79.87
2019-03-05T01:35:48.359Z,79.57
2019-03-05T01:39:16.615Z,78.79
2019-03-05T01:42:30.251Z,79.45
2019-03-05T01:45:43.946Z,79.96
2019-03-05T01:48:57.830Z,79.72
2019-03-05T01:52:11.599Z,80.62
2019-03-05T01:55:25.186Z,80.81
2019-03-05T01:58:38.685Z,80.81
2019-03-05T02:01:52.544Z,81.57
2019-03-05T02:05:06.590Z,81.47
2019-03-05T02:08:20.081Z,80.85
2019-03-05T02:11:33.663Z,81.11
2019-03-05T02:14:47.538Z,81.45
2019-03-05T02:18:01.324Z,80.63
2019-03-05T02:21:15.029Z,80.34
2019-03-05T02:25:05.529Z,79.96
2019-03-05T02:28:59.056Z,80.29
2019-03-05T02:32:41.514Z,81.10
2019-03-05T02:36:16.432Z,81.25
2019-03-05T02:40:02.415Z,80.89
2019-03-05T02:43:51.797Z,80.02
2019-03-05T02:47:35.670Z,80.70
2019-03-05T02:51:15.411Z,80.46
2019-03-05T02:54:56.567Z,80.28
2019-03-05T02:58:09.363Z,79.72
2019-03-05T03:01:50.845Z,80.16
2019-03-05T03:05:12.869Z,80.49
2019-03-05T03:08:26.726Z,80.55
2019-03-05T03:11:40.322Z,79.82
2019-03-05T03:14:53.819Z,79.66
2019-03-05T03:18:07.297Z,80.10
2019-03-05T03:21:20.778Z,79.62
2019-03-05T03:24:34.554Z,79.54
2019-03-05T03:27:48.141Z,79.70
2019-03-05T03:31:01.635Z,79.36
2019-03-05T03:34:15.127Z,79.97
2019-03-05T03:37:28.945Z,79.88
2019-03-05T03:40:42.449Z,79.62
2019-03-05T03:43:56.479Z,78.56
2019-03-05T03:47:10.201Z,79.61
2019-03-05T03:50:23.817Z,80.05
2019-03-05T03:53:37.397Z,80.23
2019-03-05T03:56:50.888Z,80.23
2019-03-05T04:00:05.136Z,80.04
2019-03-05T04:03:18.918Z,79.82
2019-03-05T04:06:32.616Z,79.47
2019-03-05T04:09:46.108Z,78.91
2019-03-05T04:12:59.865Z,79.14
2019-03-05T04:16:13.677Z,79.19
2019-03-05T04:19:30.698Z,78.94
2019-03-05T04:22:44.266Z,79.34
2019-03-05T04:25:57.980Z,79.01
2019-03-05T04:29:11.467Z,78.69
2019-03-05T04:32:24.965Z,78.91
2019-03-05T04:35:38.455Z,77.96
2019-03-05T04:38:52.479Z,77.92
2019-03-05T04:42:06.059Z,78.21
2019-03-05T04:45:35.451Z,77.64
2019-03-05T04:49:09.606Z,77.94
2019-03-05T04:52:27.160Z,77.97
2019-03-05T04:55:40.997Z,78.09
2019-03-05T04:58:54.763Z,76.86
2019-03-05T05:02:08.344Z,77.53
2019-03-05T05:05:21.954Z,77.68
2019-03-05T05:08:35.706Z,77.56
2019-03-05T05:11:49.474Z,77.53
2019-03-05T05:15:04.988Z,77.83
2019-03-05T05:18:18.471Z,77.52
2019-03-05T05:21:31.960Z,76.94
2019-03-05T05:24:46.115Z,77.69
2019-03-05T05:27:59.912Z,76.20
2019-03-05T05:31:13.651Z,76.70
2019-03-05T05:34:27.356Z,77.02
2019-03-05T05:37:40.948Z,76.57
2019-03-05T05:40:54.708Z,76.24
2019-03-05T05:44:08.192Z,75.91
2019-03-05T05:47:21.684Z,76.08
2019-03-05T05:50:35.161Z,75.10
2019-03-05T05:53:48.951Z,74.70
2019-03-05T05:57:02.563Z,75.17
2019-03-05T06:00:16.559Z,74.82
2019-03-05T06:03:30.043Z,74.55
2019-03-05T06:06:43.531Z,74.89
2019-03-05T06:09:57.118Z,75.47
2019-03-05T06:13:10.610Z,75.85
2019-03-05T06:16:24.382Z,75.76
2019-03-05T06:19:38.176Z,75.69
2019-03-05T06:22:51.766Z,75.79
2019-03-05T06:26:08.444Z,75.20
2019-03-05T06:29:20.854Z,75.68
2019-03-05T06:32:34.455Z,75.85
2019-03-05T06:35:47.948Z,76.18
2019-03-05T06:39:01.443Z,75.88
2019-03-05T06:42:14.930Z,75.70
2019-03-05T06:45:28.688Z,75.97
2019-03-05T06:48:42.175Z,75.41
2019-03-05T06:51:56.031Z,75.22
2019-03-05T06:55:10.590Z,76.10
2019-03-05T06:58:24.084Z,74.16
2019-03-05T07:01:38.061Z,74.46
2019-03-05T07:04:57.192Z,75.22
2019-03-05T07:08:10.681Z,74.24
2019-03-05T07:11:55.429Z,73.26
2019-03-05T07:16:05.207Z,73.59
2019-03-05T07:19:30.366Z,73.64
2019-03-05T07:23:15.423Z,73.75
2019-03-05T07:26:29.120Z,73.76
2019-03-05T07:29:43.014Z,74.06
2019-03-05T07:32:58.273Z,73.54
2019-03-05T07:36:11.871Z,73.35
2019-03-05T07:39:25.881Z,72.82
2019-03-05T07:42:39.873Z,73.09
2019-03-05T07:45:53.464Z,72.82
2019-03-05T07:49:07.071Z,72.24
2019-03-05T07:52:21.374Z,72.08
2019-03-05T07:55:34.869Z,71.68
2019-03-05T07:58:48.698Z,70.55
2019-03-05T08:02:02.480Z,70.63
2019-03-05T08:05:16.478Z,69.22
2019-03-05T08:09:14.979Z,69.75
2019-03-05T08:13:05.863Z,69.80
2019-03-05T08:16:29.992Z,69.43
2019-03-05T08:19:43.608Z,69.03
2019-03-05T08:22:57.649Z,68.98
2019-03-05T08:26:11.733Z,68.07
2019-03-05T08:29:25.484Z,66.64
2019-03-05T08:32:39.030Z,67.11
2019-03-05T08:35:52.824Z,68.31
2019-03-05T08:39:06.620Z,69.62
2019-03-05T08:42:20.885Z,69.70
2019-03-05T08:45:34.869Z,70.14
2019-03-05T08:48:51.458Z,69.80
2019-03-05T08:52:07.390Z,70.47
2019-03-05T08:55:23.201Z,70.37
2019-03-05T08:58:39.444Z,70.81
2019-03-05T09:01:54.520Z,70.63
2019-03-05T09:05:10.313Z,70.55
2019-03-05T09:08:26.307Z,72.57
2019-03-05T09:11:39.793Z,73.27
2019-03-05T09:14:53.391Z,73.20
2019-03-05T09:18:06.981Z,73.62
2019-03-05T09:21:20.819Z,75.54
2019-03-05T09:24:34.413Z,76.85
2019-03-05T09:27:47.999Z,77.69
2019-03-05T09:31:01.700Z,79.75
2019-03-05T09:34:15.282Z,79.90
2019-03-05T09:37:28.879Z,81.59
2019-03-05T09:40:42.489Z,81.43
2019-03-05T09:43:56.175Z,83.20
2019-03-05T09:47:09.902Z,83.35
2019-03-05T09:50:23.647Z,82.97
2019-03-05T09:53:37.246Z,82.96
2019-03-05T09:56:51.109Z,83.67
2019-03-05T10:00:06.400Z,82.99
2019-03-05T10:03:19.945Z,83.38
2019-03-05T10:06:33.593Z,82.83
2019-03-05T10:09:47.768Z,84.58
2019-03-05T10:13:04.213Z,84.49
2019-03-05T10:16:18.664Z,85.11
2019-03-05T10:19:32.392Z,84.79
2019-03-05T10:22:46.851Z,84.21
2019-03-05T10:26:00.628Z,84.60
2019-03-05T10:29:14.132Z,85.52
2019-03-05T10:32:27.738Z,85.48
2019-03-05T10:35:41.327Z,85.48
2019-03-05T10:38:57.643Z,85.50
2019-03-05T10:42:10.928Z,85.69
2019-03-05T10:45:25.396Z,85.83
2019-03-05T10:48:39.209Z,85.88
2019-03-05T10:51:53.186Z,86.22
2019-03-05T10:55:07.464Z,85.28
2019-03-05T10:58:32.720Z,86.32
2019-03-05T11:01:36.855Z,86.28
2019-03-05T11:04:52.401Z,85.15
2019-03-05T11:08:07.209Z,86.73
2019-03-05T11:11:21.223Z,86.80
2019-03-05T11:14:35.250Z,85.60
2019-03-05T11:17:49.155Z,85.58
2019-03-05T11:21:03.869Z,86.83
2019-03-05T11:24:17.372Z,87.37
2019-03-05T11:27:30.946Z,87.14
2019-03-05T11:30:44.748Z,86.92
2019-03-05T11:33:58.664Z,86.69
2019-03-05T11:37:12.274Z,86.87
2019-03-05T11:40:26.080Z,86.79
2019-03-05T11:43:39.673Z,87.11
2019-03-05T11:46:53.159Z,86.70
2019-03-05T11:50:07.583Z,86.41
2019-03-05T11:53:21.277Z,86.75
2019-03-05T11:56:34.785Z,86.68
2019-03-05T11:59:48.480Z,85.33
2019-03-05T12:03:02.054Z,83.93
2019-03-05T12:06:15.555Z,83.80
2019-03-05T12:13:10.031Z,84.37
2019-03-05T12:16:23.780Z,84.99
2019-03-05T12:19:37.278Z,83.50
2019-03-05T12:22:50.856Z,85.63
2019-03-05T12:26:04.560Z,84.40
2019-03-05T12:29:18.161Z,83.49
2019-03-05T12:32:31.760Z,84.01
2019-03-05T12:35:45.563Z,84.11
2019-03-05T12:38:59.292Z,83.44
2019-03-05T12:42:12.886Z,83.79
2019-03-05T12:45:26.475Z,84.35
2019-03-05T12:48:40.595Z,84.30
2019-03-05T12:51:54.431Z,82.86
2019-03-05T12:55:08.267Z,82.74
2019-03-05T12:58:22.257Z,81.65
2019-03-05T13:01:35.763Z,82.26
2019-03-05T13:04:49.509Z,82.61
2019-03-05T13:08:03.405Z,81.86
2019-03-05T13:11:16.990Z,83.71
2019-03-05T13:14:30.729Z,82.16
2019-03-05T13:17:47.139Z,83.12
2019-03-05T13:21:03.520Z,81.64
2019-03-05T13:24:15.221Z,81.40
2019-03-05T13:27:29.096Z,81.56
2019-03-05T13:30:42.959Z,80.95
2019-03-05T13:33:56.542Z,81.73
2019-03-05T13:37:10.147Z,81.96
2019-03-05T13:40:24.899Z,82.22
2019-03-05T13:43:38.503Z,81.23
2019-03-05T13:46:52.015Z,82.07
2019-03-05T13:50:38.496Z,82.07
2019-03-05T13:54:21.494Z,81.30
2019-03-05T13:58:16.250Z,81.00
2019-03-05T14:01:29.955Z,79.56
2019-03-05T14:04:52.464Z,81.35
2019-03-05T14:08:35.320Z,80.51
2019-03-05T14:11:50.103Z,79.02
2019-03-05T14:15:04.568Z,78.74
2019-03-05T14:18:18.282Z,77.73
2019-03-05T14:21:31.894Z,77.73
2019-03-05T14:24:45.480Z,77.98
2019-03-05T14:27:59.240Z,77.90
2019-03-05T14:31:12.836Z,77.98
2019-03-05T14:34:26.410Z,77.74
2019-03-05T14:37:40.033Z,77.48
2019-03-05T14:40:55.091Z,77.99
2019-03-05T14:44:09.148Z,78.65
2019-03-05T14:47:23.656Z,77.89
2019-03-05T14:50:37.489Z,77.46
2019-03-05T14:53:51.189Z,77.14
2019-03-05T14:57:04.879Z,75.82
2019-03-05T15:00:19.265Z,74.42
2019-03-05T15:03:33.228Z,75.58
2019-03-05T15:06:48.077Z,75.96
2019-03-05T15:10:01.885Z,74.66
2019-03-05T15:13:19.911Z,76.69
2019-03-05T15:16:31.734Z,75.93
2019-03-05T15:19:45.802Z,75.41
2019-03-05T15:22:59.455Z,75.27
2019-03-05T15:26:13.017Z,74.74
2019-03-05T15:29:27.000Z,74.27
2019-03-05T15:32:40.780Z,73.48
2019-03-05T15:35:54.538Z,72.57
2019-03-05T15:39:08.195Z,72.72
2019-03-05T15:42:21.889Z,72.71
2019-03-05T15:45:35.591Z,72.84
2019-03-05T15:48:49.681Z,68.92
2019-03-05T15:52:03.347Z,69.60
2019-03-05T15:55:17.070Z,69.69
2019-03-05T15:58:30.683Z,69.94
2019-03-05T16:01:44.377Z,71.30
2019-03-05T16:04:57.896Z,72.38
2019-03-05T16:08:11.768Z,72.25
2019-03-05T16:11:25.669Z,72.50
2019-03-05T16:14:39.169Z,73.74
2019-03-05T16:17:54.404Z,74.85
2019-03-05T16:21:08.205Z,75.81
2019-03-05T16:24:22.022Z,75.64
2019-03-05T16:27:35.934Z,76.05
2019-03-05T16:31:12.574Z,76.09
2019-03-05T16:34:58.377Z,76.22
2019-03-05T16:38:26.548Z,76.81
2019-03-05T16:41:58.624Z,76.99
2019-03-05T16:45:40.949Z,77.11
2019-03-05T16:49:13.423Z,76.95
2019-03-05T16:52:46.323Z,77.77
2019-03-05T16:56:24.982Z,77.42
2019-03-05T16:59:57.028Z,77.55
2019-03-05T17:03:30.363Z,78.27
2019-03-05T17:07:07.237Z,78.01
2019-03-05T17:10:49.215Z,77.74
2019-03-05T17:14:03.171Z,77.98
2019-03-05T17:17:16.894Z,78.36
2019-03-05T17:20:30.884Z,79.02
2019-03-05T17:23:44.486Z,78.93
2019-03-05T17:26:58.084Z,79.00
2019-03-05T17:30:13.329Z,79.32
2019-03-05T17:33:26.869Z,79.30
2019-03-05T17:36:41.040Z,79.01
2019-03-05T17:39:54.691Z,79.52
2019-03-05T17:43:08.383Z,79.64
2019-03-05T17:46:22.269Z,79.70
2019-03-05T17:49:36.034Z,80.56
2019-03-05T17:52:49.647Z,81.19
2019-03-05T17:56:03.327Z,81.50
2019-03-05T17:59:17.228Z,81.31
2019-03-05T18:02:31.099Z,81.61
2019-03-05T18:05:44.694Z,81.54
2019-03-05T18:08:58.567Z,81.86
2019-03-05T18:12:12.252Z,81.96
2019-03-05T18:15:25.970Z,81.69
2019-03-05T18:18:39.473Z,82.13
2019-03-05T18:21:53.188Z,82.49
2019-03-05T18:25:07.630Z,82.76
2019-03-05T18:28:21.528Z,82.47
2019-03-05T18:31:35.363Z,82.43
2019-03-05T18:34:49.258Z,82.86
2019-03-05T18:38:02.963Z,83.71
2019-03-05T18:41:16.660Z,83.39
2019-03-05T18:44:30.159Z,83.51
2019-03-05T18:47:43.848Z,83.96
2019-03-05T18:50:57.762Z,83.67
2019-03-05T18:54:11.265Z,83.75
2019-03-05T18:57:25.168Z,82.84
2019-03-05T19:00:38.955Z,82.42
2019-03-05T19:03:52.441Z,83.23
2019-03-05T19:07:06.050Z,83.23
2019-03-05T19:10:20.390Z,83.95
2019-03-05T19:13:34.009Z,83.88
2019-03-05T19:16:47.738Z,83.28
2019-03-05T19:20:01.603Z,83.66
2019-03-05T19:23:15.409Z,84.20
2019-03-05T19:26:28.996Z,83.98
2019-03-05T19:29:42.596Z,83.93
2019-03-05T19:32:56.292Z,84.57
2019-03-05T19:36:09.878Z,84.48
2019-03-05T19:39:23.475Z,84.90
2019-03-05T19:42:37.382Z,84.24
2019-03-05T19:45:51.268Z,84.77
2019-03-05T19:49:04.959Z,83.92
2019-03-05T19:52:18.460Z,84.92
2019-03-05T19:55:32.526Z,85.17
2019-03-05T19:58:46.432Z,85.02
2019-03-05T20:01:59.919Z,84.62
2019-03-05T20:05:15.100Z,84.82
2019-03-05T20:08:28.955Z,85.15
2019-03-05T20:11:43.152Z,85.19
2019-03-05T20:14:57.215Z,85.88
2019-03-05T20:18:10.915Z,85.20
2019-03-05T20:21:24.629Z,84.95
2019-03-05T20:24:38.227Z,85.04
2019-03-05T20:27:52.340Z,84.92
2019-03-05T20:31:06.610Z,84.50
2019-03-05T20:34:21.237Z,84.76
2019-03-05T20:37:34.960Z,84.63
2019-03-05T20:40:48.539Z,84.42
2019-03-05T20:44:02.301Z,84.56
2019-03-05T20:47:16.104Z,84.42
2019-03-05T20:50:29.815Z,84.27
2019-03-05T20:53:43.604Z,84.50
2019-03-05T20:56:57.677Z,85.09
2019-03-05T21:00:31.168Z,85.22
2019-03-05T21:03:45.342Z,85.43
2019-03-05T21:07:01.283Z,85.39
2019-03-05T21:10:15.018Z,85.74
2019-03-05T21:13:28.504Z,85.80
2019-03-05T21:16:42.197Z,85.74
2019-03-05T21:19:55.679Z,85.76
2019-03-05T21:23:09.363Z,85.93
2019-03-05T21:26:23.216Z,86.78
2019-03-05T21:29:37.535Z,87.22
2019-03-05T21:32:51.121Z,86.96
2019-03-05T21:36:04.702Z,87.12
2019-03-05T21:39:18.856Z,87.39
2019-03-05T21:42:32.341Z,87.48
2019-03-05T21:45:46.097Z,87.31
2019-03-05T21:48:59.573Z,87.25
2019-03-05T21:52:13.059Z,87.74
2019-03-05T21:55:26.657Z,87.21
2019-03-05T21:58:40.247Z,86.78
2019-03-05T22:01:53.741Z,87.36
2019-03-05T22:05:07.654Z,87.56
2019-03-05T22:08:21.255Z,87.18
2019-03-05T22:11:34.746Z,86.95
2019-03-05T22:14:48.497Z,87.18
2019-03-05T22:18:02.193Z,87.38
2019-03-05T22:21:15.781Z,87.55
2019-03-05T22:24:29.251Z,88.24
2019-03-05T22:27:42.856Z,88.46
2019-03-05T22:30:56.437Z,88.20
2019-03-05T22:34:10.035Z,88.42
2019-03-05T22:37:23.752Z,88.35
2019-03-05T22:40:37.657Z,88.31
2019-03-05T22:43:51.247Z,87.80
2019-03-05T22:47:04.729Z,87.85
2019-03-05T22:50:20.414Z,87.76
2019-03-05T22:53:33.941Z,87.88
2019-03-05T22:56:47.831Z,87.85
2019-03-05T23:00:01.402Z,87.47
2019-03-05T23:03:16.810Z,87.10
2019-03-05T23:06:30.786Z,86.70
2019-03-05T23:09:44.575Z,86.50
2019-03-05T23:12:58.376Z,86.32
2019-03-05T23:16:12.650Z,86.55
2019-03-05T23:19:26.964Z,86.71
2019-03-05T23:22:40.661Z,86.44
2019-03-05T23:25:54.350Z,86.24
2019-03-05T23:29:08.966Z,86.25
2019-03-05T23:32:22.851Z,86.04
2019-03-05T23:35:36.554Z,86.10
2019-03-05T23:38:50.049Z,86.70
2019-03-05T23:42:03.855Z,86.90
2019-03-05T23:45:17.749Z,86.46
2019-03-05T23:48:31.343Z,86.45
2019-03-05T23:51:45.234Z,86.26
2019-03-05T23:54:59.080Z,86.20
2019-03-05T23:58:12.676Z,86.09
